Data for 03/29/2017

Time Sea-Level Adjusted Pressure Absolute Pressure Temperature Relative Humidity Dew Point   
(mb) (inHg) (mb) (inHg) (C) (F) (%) (C) (F)
00:05 1021 30.15 851 25.13 2.5 36.5 57 -5.2 22.7
00:10 1021 30.15 851 25.13 2.5 36.6 57 -5.1 22.8
00:15 1021 30.15 850 25.1 2.5 36.4 57 -5.2 22.7
00:20 1021 30.15 850 25.1 2.4 36.3 57 -5.3 22.5
00:25 1021 30.15 850 25.1 2.4 36.4 57 -5.2 22.6
00:30 1021 30.15 850 25.1 2.5 36.6 57 -5.2 22.7
00:35 1021 30.15 851 25.13 2.6 36.6 57 -5.1 22.8
00:40 1021 30.15 851 25.13 2.5 36.6 58 -5 23.1
00:45 1021 30.15 851 25.13 2.4 36.4 58 -5 22.9
00:50 1021 30.15 851 25.13 2.5 36.4 60 -4.6 23.7
00:55 1022 30.18 851 25.13 2.2 36 60 -4.8 23.3
01:00 1022 30.18 851 25.13 2.1 35.7 61 -4.7 23.6
01:05 1022 30.18 851 25.13 2.1 35.7 61 -4.7 23.6
01:10 1021 30.15 851 25.13 2 35.6 60 -5 23
01:15 1021 30.15 851 25.13 1.9 35.5 60 -5 22.9
01:20 1021 30.15 851 25.13 1.9 35.3 60 -5.1 22.8
01:25 1021 30.15 851 25.13 2 35.6 60 -5.1 22.9
01:30 1021 30.15 851 25.13 2.1 35.7 59 -5 23
01:35 1021 30.15 851 25.13 2 35.6 60 -5 23
01:40 1021 30.15 850 25.1 1.9 35.4 60 -5 23.1
01:45 1021 30.15 850 25.1 1.6 34.9 62 -4.8 23.3
01:50 1021 30.15 850 25.1 1.4 34.6 63 -4.9 23.2
01:55 1021 30.15 850 25.1 1.6 34.8 62 -4.9 23.1
02:00 1021 30.15 850 25.1 1.7 35.1 62 -4.9 23.2
02:05 1021 30.15 850 25.1 1.8 35.3 60 -5 22.9
02:10 1021 30.15 850 25.1 1.8 35.2 62 -4.8 23.4
02:15 1021 30.15 850 25.1 1.6 34.9 62 -4.8 23.3
02:20 1021 30.15 850 25.1 1.6 34.8 62 -4.9 23.1
02:25 1021 30.15 850 25.1 1.6 34.9 62 -4.9 23.3
02:30 1021 30.15 850 25.1 1.6 34.8 62 -4.9 23.2
02:35 1021 30.15 850 25.1 1.6 34.9 62 -4.8 23.3
02:40 1021 30.15 850 25.1 1.6 34.8 62 -4.8 23.3
02:45 1021 30.15 850 25.1 1.3 34.4 63 -4.9 23.3
02:50 1021 30.15 850 25.1 1.2 34.2 64 -4.9 23.1
02:55 1021 30.15 850 25.1 1.2 34.1 64 -5 23
03:00 1021 30.15 850 25.1 1.2 34.1 65 -4.7 23.5
03:05 1021 30.15 850 25.1 0.8 33.5 66 -4.8 23.4
03:10 1021 30.15 850 25.1 0.9 33.5 64 -5.3 22.5
03:15 1021 30.15 850 25.1 1.1 34.1 61 -5.6 22
03:20 1021 30.15 850 25.1 1.5 34.7 59 -5.7 21.7
03:25 1021 30.15 850 25.1 1.6 34.9 60 -5.4 22.3
03:30 1021 30.15 850 25.1 1.4 34.5 62 -5.2 22.7
03:35 1021 30.15 850 25.1 1.3 34.3 63 -5.1 22.9
03:40 1021 30.15 850 25.1 1.2 34.2 62 -5.2 22.7
03:45 1021 30.15 850 25.1 1.1 34 63 -5.2 22.7
03:50 1021 30.15 850 25.1 1.1 33.9 63 -5.2 22.6
03:55 1021 30.15 850 25.1 1.1 34 63 -5.2 22.7
04:00 1021 30.15 850 25.1 1 33.9 64 -5 23.1
04:05 1021 30.15 850 25.1 0.9 33.7 66 -4.8 23.4
04:10 1021 30.15 850 25.1 0.8 33.5 66 -4.8 23.3
04:15 1021 30.15 850 25.1 0.7 33.3 66 -4.8 23.3
04:20 1021 30.15 850 25.1 0.7 33.2 66 -5 23.1
04:25 1021 30.15 850 25.1 0.7 33.2 66 -4.9 23.1
04:30 1021 30.15 850 25.1 0.6 33.2 66 -4.9 23.2
04:35 1021 30.15 850 25.1 0.6 33.2 67 -4.9 23.2
04:40 1021 30.15 850 25.1 0.7 33.2 66 -4.9 23.2
04:45 1021 30.15 850 25.1 0.8 33.4 66 -4.9 23.1
04:50 1021 30.15 850 25.1 0.8 33.5 66 -4.9 23.3
04:55 1021 30.15 850 25.1 0.8 33.4 66 -4.9 23.2
05:00 1021 30.15 850 25.1 0.7 33.2 66 -4.9 23.1
05:05 1021 30.15 850 25.1 0.7 33.2 66 -5 23.1
05:10 1021 30.15 850 25.1 0.7 33.2 67 -4.9 23.3
05:15 1021 30.15 850 25.1 0.8 33.4 66 -4.9 23.2
05:20 1021 30.15 850 25.1 0.8 33.5 65 -5 23
05:25 1021 30.15 850 25.1 0.8 33.5 66 -4.9 23.2
05:30 1021 30.15 850 25.1 0.5 32.9 67 -4.9 23.1
05:35 1021 30.15 850 25.1 0.6 33.1 67 -4.8 23.3
05:40 1021 30.15 850 25.1 0.5 33 67 -4.9 23.3
05:45 1021 30.15 850 25.1 0.6 33.1 67 -4.8 23.3
05:50 1021 30.15 850 25.1 0.7 33.3 67 -4.6 23.7
05:55 1021 30.15 850 25.1 0.7 33.3 67 -4.7 23.6
06:00 1021 30.15 850 25.1 0.8 33.4 68 -4.5 24
06:05 1021 30.15 850 25.1 0.9 33.5 66 -4.8 23.3
06:10 1021 30.15 850 25.1 0.8 33.5 65 -5.1 22.8
06:15 1021 30.15 850 25.1 0.9 33.7 65 -5 23
06:20 1021 30.15 850 25.1 1 33.8 65 -4.9 23.1
06:25 1021 30.15 850 25.1 1 33.9 65 -4.8 23.3
06:30 1021 30.15 850 25.1 0.5 32.9 69 -4.6 23.7
06:35 1021 30.15 850 25.1 0.2 32.3 66 -5.4 22.3
06:40 1021 30.15 850 25.1 0.6 33.1 63 -5.7 21.8
06:45 1021 30.15 850 25.1 0.9 33.7 61 -5.7 21.7
06:50 1021 30.15 850 25.1 1.3 34.3 60 -5.6 22
06:55 1021 30.15 850 25.1 1.6 34.9 58 -5.7 21.7
07:00 1021 30.15 850 25.1 1.9 35.4 56 -6 21.2
07:05 1021 30.15 850 25.1 2.3 36.1 55 -5.8 21.5
07:10 1021 30.15 850 25.1 2.7 36.8 53 -6 21.3
07:15 1021 30.15 850 25.1 3.2 37.7 53 -5.5 22.1
07:20 1021 30.15 850 25.1 3 37.4 54 -5.4 22.2
07:25 1021 30.15 850 25.1 3.3 37.9 52 -5.6 22
07:30 1021 30.15 850 25.1 3.5 38.3 52 -5.5 22.2
07:35 1020 30.12 850 25.1 3.6 38.4 52 -5.4 22.2
07:40 1020 30.12 850 25.1 4 39.1 52 -5.1 22.8
07:45 1020 30.12 850 25.1 4 39.3 51 -5.1 22.8
07:50 1020 30.12 850 25.1 4.1 39.4 51 -5 23
07:55 1020 30.12 849 25.07 4.5 40 50 -5.1 22.9
08:00 1020 30.12 849 25.07 4.5 40.1 48 -5.5 22.1
08:05 1020 30.12 849 25.07 4.9 40.9 48 -5.2 22.7
08:10 1020 30.12 849 25.07 5.5 42 46 -5.1 22.9
08:15 1020 30.12 849 25.07 5.7 42.3 46 -4.9 23.1
08:20 1020 30.12 849 25.07 6 42.7 43 -5.8 21.5
08:25 1020 30.12 849 25.07 6.2 43.2 41 -6 21.2
08:30 1020 30.12 849 25.07 6.4 43.5 42 -5.7 21.8
08:35 1020 30.12 849 25.07 6.4 43.4 44 -4.9 23.1
08:40 1020 30.12 849 25.07 6.6 43.8 47 -3.9 25
08:45 1020 30.12 849 25.07 6.8 44.3 44 -4.7 23.6
08:50 1020 30.12 849 25.07 6.9 44.4 42 -5.1 22.8
08:55 1020 30.12 849 25.07 7 44.6 40 -5.6 21.9
09:00 1020 30.12 849 25.07 7.2 45 40 -5.5 22.2
09:05 1020 30.12 849 25.07 7.3 45.2 39 -5.6 21.9
09:10 1020 30.12 849 25.07 7.2 44.9 38 -6.2 20.8
09:15 1020 30.12 849 25.07 7.3 45.2 37 -6.4 20.6
09:20 1020 30.12 849 25.07 7.8 46.1 36 -6.3 20.7
09:25 1020 30.12 849 25.07 7.7 45.8 37 -6 21.2
09:30 1020 30.12 849 25.07 8 46.4 35 -6.4 20.4
09:35 1020 30.12 849 25.07 8.4 47.2 34 -6.7 20
09:40 1020 30.12 849 25.07 8.3 46.9 34 -6.7 19.9
09:45 1020 30.12 849 25.07 8.3 47 33 -7 19.4
09:50 1019 30.09 849 25.07 8.7 47.7 32 -7 19.4
09:55 1019 30.09 849 25.07 8.8 47.8 33 -6.6 20.1
10:00 1019 30.09 849 25.07 8.6 47.4 34 -6.6 20.1
10:05 1019 30.09 849 25.07 8.4 47 34 -6.8 19.8
10:10 1019 30.09 849 25.07 8.4 47 34 -6.5 20.2
10:15 1019 30.09 849 25.07 8.8 47.9 33 -6.4 20.5
10:20 1019 30.09 848 25.04 9 48.3 33 -6.5 20.3
10:25 1019 30.09 848 25.04 9.7 49.4 32 -6.2 20.8
10:30 1019 30.09 848 25.04 10.2 50.3 31 -6.3 20.7
10:35 1019 30.09 848 25.04 10.4 50.7 30 -6.2 20.8
10:40 1019 30.09 848 25.04 10.4 50.7 30 -6.3 20.6
10:45 1019 30.09 848 25.04 9.8 49.6 31 -6.4 20.4
10:50 1019 30.09 848 25.04 10.2 50.4 31 -6 21.2
10:55 1019 30.09 848 25.04 10.4 50.7 31 -5.9 21.4
11:00 1019 30.09 848 25.04 10.3 50.6 31 -5.9 21.4
11:05 1019 30.09 848 25.04 10.3 50.5 32 -5.7 21.8
11:10 1019 30.09 848 25.04 10.2 50.3 31 -6 21.2
11:15 1019 30.09 848 25.04 10.5 50.8 32 -5.6 21.9
11:20 1019 30.09 848 25.04 10.4 50.7 33 -5 23
11:25 1019 30.09 848 25.04 9.6 49.2 36 -4.7 23.5
11:30 1019 30.09 848 25.04 9.7 49.5 37 -4.4 24.2
11:35 1019 30.09 848 25.04 9 48.2 42 -3.2 26.2
11:40 1019 30.09 848 25.04 8.8 47.9 43 -3.1 26.3
11:45 1019 30.09 848 25.04 8.6 47.6 44 -2.9 26.8
11:50 1019 30.09 848 25.04 8.3 47 46 -2.7 27.2
11:55 1019 30.09 848 25.04 8.3 46.9 46 -2.7 27.2
12:00 1018 30.06 848 25.04 8.4 47.1 45 -2.7 27.1
12:05 1018 30.06 848 25.04 8.2 46.7 48 -2.2 28
12:10 1018 30.06 848 25.04 7.7 45.9 50 -2 28.4
12:15 1018 30.06 847 25.01 7.8 46.1 50 -1.9 28.6
12:20 1018 30.06 847 25.01 7.7 45.9 52 -1.4 29.4
12:25 1018 30.06 847 25.01 8.3 47 53 -0.6 30.9
12:30 1018 30.06 847 25.01 8.4 47.2 51 -1 30.2
12:35 1018 30.06 847 25.01 8.8 47.8 49 -1.3 29.6
12:40 1018 30.06 847 25.01 9.6 49.3 45 -1.7 28.9
12:45 1017 30.03 847 25.01 9.7 49.4 46 -1.4 29.5
12:50 1017 30.03 847 25.01 10.1 50.2 45 -1.3 29.7
12:55 1017 30.03 846 24.98 10.1 50.1 43 -1.8 28.8
13:00 1017 30.03 846 24.98 10.3 50.5 42 -1.9 28.6
13:05 1017 30.03 846 24.98 9.7 49.5 46 -1.3 29.6
13:10 1017 30.03 846 24.98 9.9 49.9 42 -2.3 27.9
13:15 1017 30.03 846 24.98 10.5 50.9 42 -1.9 28.6
13:20 1017 30.03 846 24.98 10.4 50.7 41 -2.2 28.1
13:25 1017 30.03 846 24.98 11 51.8 40 -1.9 28.5
13:30 1017 30.03 846 24.98 11.8 53.2 38 -1.9 28.6
13:35 1017 30.03 846 24.98 11.9 53.5 39 -1.5 29.3
13:40 1016 30 846 24.98 11.8 53.2 40 -1.5 29.3
13:45 1016 30 846 24.98 10.8 51.5 44 -0.8 30.5
13:50 1016 30 846 24.98 10.4 50.8 42 -1.7 28.9
13:55 1016 30 845 24.95 10.8 51.5 42 -1.4 29.4
14:00 1016 30 845 24.95 11.2 52.1 41 -1.5 29.2
14:05 1016 30 845 24.95 11.6 52.8 40 -1.3 29.6
14:10 1016 30 845 24.95 11.1 51.9 41 -1.6 29.1
14:15 1016 30 845 24.95 11.6 52.9 39 -2 28.4
14:20 1016 30 845 24.95 12.8 55.1 36 -1.9 28.6
14:25 1016 30 845 24.95 12.5 54.4 36 -2.1 28.2
14:30 1016 30 845 24.95 12.5 54.6 37 -1.6 29.1
14:35 1016 30 845 24.95 12.6 54.7 36 -1.9 28.5
14:40 1016 30 845 24.95 12.7 54.9 36 -2 28.5
14:45 1016 30 845 24.95 13.3 56 35 -1.7 29
14:50 1016 30 845 24.95 13 55.4 34 -2.2 28
14:55 1015 29.97 845 24.95 13.7 56.6 34 -2 28.5
15:00 1015 29.97 845 24.95 13.2 55.7 33 -2.7 27.1
15:05 1015 29.97 845 24.95 12.4 54.3 34 -3.1 26.4
15:10 1015 29.97 844 24.92 13 55.5 32 -3.3 26.1
15:15 1015 29.97 844 24.92 13.7 56.7 31 -3 26.6
15:20 1015 29.97 844 24.92 13.7 56.6 32 -2.5 27.4
15:25 1015 29.97 844 24.92 12.7 54.9 34 -2.6 27.3
15:30 1015 29.97 844 24.92 12.3 54.2 35 -2.7 27.2
15:35 1015 29.97 844 24.92 12.5 54.5 33 -3.2 26.3
15:40 1015 29.97 844 24.92 12.2 54 35 -2.7 27.2
15:45 1015 29.97 844 24.92 12.4 54.4 34 -3 26.7
15:50 1015 29.97 844 24.92 12.4 54.4 34 -3.1 26.5
15:55 1015 29.97 844 24.92 12.5 54.4 34 -3.1 26.5
16:00 1015 29.97 844 24.92 12.9 55.3 33 -2.9 26.8
16:05 1014 29.94 844 24.92 12.8 55 33 -3.1 26.4
16:10 1014 29.94 844 24.92 13.2 55.8 32 -3 26.7
16:15 1014 29.94 844 24.92 13.1 55.5 33 -2.8 26.9
16:20 1014 29.94 844 24.92 12.7 54.9 33 -2.9 26.7
16:25 1014 29.94 844 24.92 12.9 55.2 33 -2.9 26.8
16:30 1014 29.94 844 24.92 12.8 55 33 -3 26.5
16:35 1014 29.94 844 24.92 12.8 55 33 -2.9 26.7
16:40 1014 29.94 844 24.92 12.8 55.1 33 -3.1 26.5
16:45 1014 29.94 844 24.92 12.9 55.3 34 -2.7 27.2
16:50 1014 29.94 844 24.92 13 55.4 33 -2.7 27.2
16:55 1014 29.94 844 24.92 13.1 55.5 34 -2.5 27.6
17:00 1014 29.94 844 24.92 12.9 55.2 34 -2.6 27.3
17:05 1014 29.94 844 24.92 12.8 55 34 -2.6 27.3
17:10 1014 29.94 844 24.92 12.7 54.8 35 -2.2 28
17:15 1014 29.94 844 24.92 12.6 54.6 35 -2.4 27.7
17:20 1014 29.94 844 24.92 12.5 54.5 35 -2.3 27.9
17:25 1014 29.94 844 24.92 12.5 54.5 36 -2.3 27.9
17:30 1014 29.94 844 24.92 12.6 54.6 35 -2.3 27.9
17:35 1014 29.94 844 24.92 12.5 54.6 36 -2.1 28.1
17:40 1015 29.97 844 24.92 12.5 54.5 36 -2 28.4
17:45 1015 29.97 844 24.92 12.4 54.3 37 -1.7 28.9
17:50 1015 29.97 844 24.92 12.3 54.1 39 -1.2 29.8
17:55 1015 29.97 844 24.92 12.2 54 39 -1.3 29.7
18:00 1015 29.97 844 24.92 12.1 53.7 40 -1 30.2
18:05 1015 29.97 844 24.92 11.9 53.4 40 -1.3 29.7
18:10 1015 29.97 844 24.92 11.8 53.2 41 -1.1 30.1
18:15 1015 29.97 844 24.92 11.6 52.9 42 -0.9 30.4
18:20 1015 29.97 844 24.92 11.3 52.3 42 -1.1 30
18:25 1015 29.97 844 24.92 11.1 52 43 -1.1 30.1
18:30 1015 29.97 844 24.92 11 51.8 43 -1 30.3
18:35 1015 29.97 844 24.92 10.8 51.5 44 -0.8 30.5
18:40 1015 29.97 844 24.92 10.7 51.3 45 -0.6 30.8
18:45 1015 29.97 844 24.92 10.6 51.1 46 -0.6 30.9
18:50 1015 29.97 844 24.92 10.6 51.1 44 -1 30.2
18:55 1015 29.97 844 24.92 10.7 51.2 45 -0.7 30.8
19:00 1015 29.97 844 24.92 10.6 51.1 46 -0.6 30.9
19:05 1015 29.97 844 24.92 10.5 50.9 46 -0.5 31.2
19:10 1015 29.97 844 24.92 10.5 50.8 46 -0.6 31
19:15 1015 29.97 844 24.92 10.4 50.8 46 -0.5 31.1
19:20 1015 29.97 844 24.92 10.4 50.8 49 0.3 32.5
19:25 1015 29.97 844 24.92 10.1 50.2 50 0.3 32.6
19:30 1015 29.97 844 24.92 10 50 51 0.4 32.6
19:35 1015 29.97 844 24.92 9.9 49.9 52 0.5 32.9
19:40 1015 29.97 844 24.92 9.8 49.6 52 0.5 33
19:45 1015 29.97 844 24.92 9.7 49.4 53 0.5 32.9
19:50 1015 29.97 844 24.92 9.6 49.4 55 1 33.8
19:55 1015 29.97 844 24.92 9 48.2 62 2 35.7
20:00 1015 29.97 844 24.92 8.2 46.7 63 1.6 35
20:05 1015 29.97 844 24.92 8.1 46.6 64 1.6 34.9
20:10 1015 29.97 844 24.92 8.1 46.5 64 1.7 35
20:15 1015 29.97 844 24.92 8 46.5 64 1.6 34.9
20:20 1015 29.97 844 24.92 8.1 46.5 63 1.4 34.5
20:25 1015 29.97 844 24.92 8.3 47 61 1.2 34.1
20:30 1015 29.97 844 24.92 8.5 47.4 60 1.3 34.3
20:35 1015 29.97 844 24.92 8.4 47.2 62 1.5 34.7
20:40 1015 29.97 844 24.92 8.2 46.7 63 1.6 34.8
20:45 1015 29.97 844 24.92 8.1 46.6 63 1.6 34.9
20:50 1015 29.97 844 24.92 8.1 46.6 63 1.6 34.9
20:55 1015 29.97 844 24.92 8.2 46.7 63 1.6 34.8
21:00 1015 29.97 844 24.92 8.2 46.7 63 1.6 34.8
21:05 1015 29.97 844 24.92 8.2 46.7 64 1.7 35.1
21:10 1015 29.97 844 24.92 8.1 46.6 65 1.9 35.4
21:15 1015 29.97 844 24.92 8 46.4 65 1.8 35.3
21:20 1015 29.97 844 24.92 7.8 46 68 2.2 36
21:25 1015 29.97 844 24.92 7.8 46.1 69 2.6 36.7
21:30 1015 29.97 844 24.92 7.8 46 70 2.7 36.8
21:35 1014 29.94 844 24.92 7.7 45.8 69 2.4 36.4
21:40 1014 29.94 844 24.92 7.5 45.5 70 2.4 36.3
21:45 1014 29.94 844 24.92 7.2 44.9 72 2.4 36.3
21:50 1014 29.94 844 24.92 7 44.5 72 2.3 36.1
21:55 1014 29.94 843 24.89 7 44.5 73 2.5 36.5
22:00 1014 29.94 843 24.89 7 44.5 76 3 37.3
22:05 1014 29.94 843 24.89 6.8 44.3 77 3 37.4
22:10 1014 29.94 843 24.89 6.7 44.1 77 3 37.3
22:15 1014 29.94 843 24.89 6.8 44.3 78 3.3 37.9
22:20 1014 29.94 843 24.89 6.9 44.3 78 3.3 38
22:25 1014 29.94 843 24.89 6.9 44.4 78 3.4 38
22:30 1014 29.94 843 24.89 6.9 44.4 80 3.6 38.5
22:35 1014 29.94 843 24.89 6.9 44.4 79 3.6 38.4
22:40 1014 29.94 843 24.89 6.8 44.3 80 3.7 38.6
22:45 1014 29.94 843 24.89 6.8 44.2 79 3.4 38.1
22:50 1014 29.94 843 24.89 6.8 44.2 78 3.2 37.8
22:55 1014 29.94 843 24.89 6.7 44.1 79 3.3 37.9
23:00 1014 29.94 843 24.89 6.6 43.9 80 3.3 38
23:05 1014 29.94 843 24.89 6.6 43.8 80 3.3 37.9
23:10 1014 29.94 843 24.89 6.4 43.6 81 3.5 38.2
23:15 1013 29.91 843 24.89 6.1 43 84 3.6 38.4
23:20 1013 29.91 843 24.89 5.9 42.6 85 3.6 38.5
23:25 1013 29.91 842 24.86 5.8 42.5 86 3.7 38.7
23:30 1013 29.91 842 24.86 5.8 42.4 86 3.5 38.4
23:35 1013 29.91 842 24.86 5.7 42.3 85 3.4 38.1
23:40 1013 29.91 842 24.86 5.7 42.3 84 3.3 37.9
23:45 1013 29.91 842 24.86 5.7 42.2 84 3.1 37.6
23:50 1013 29.91 842 24.86 5.6 42.1 85 3.3 37.9
23:55 1013 29.91 842 24.86 5.6 42.1 86 3.4 38.1
24:00 1013 29.91 842 24.86 5.5 41.8 86 3.3 38